N050SB EKYT-EDDH
Flight info
| Callsign | N050SB |
|---|---|
| Flight time | 1h 5m |
| Altitude | 30000 |
| Route | RIDSI P615 ALS M852 ALASA/N0275F290 M852 EKERN/N0271F230 T905 BOGMU BOGMU3N |
| Aircraft | SF50/L-SDGRWY/L |
Departure
| Time | 2026-04-20 13:55 |
|---|---|
| Airport | Aalborg Airport (EKYT) |
Arrival
| Time | 2026-04-20 15:00 |
|---|---|
| Airport | Hamburg Helmut Schmidt Airport (EDDH) |
| Time | Latitude | Longitude | Altitude | Speed | Heading |
|---|---|---|---|---|---|
| 2026-04-20 13:40 | 57.09222 | 9.87625 | 13 ft | 0 kts | 176° |
| 2026-04-20 13:48 | 57.09218 | 9.87624 | 13 ft | 1 kts | 226° |
| 2026-04-20 13:48 | 57.09245 | 9.87610 | 13 ft | 9 kts | 314° |
| 2026-04-20 13:48 | 57.09248 | 9.87521 | 13 ft | 7 kts | 269° |
| 2026-04-20 13:49 | 57.09246 | 9.87438 | 13 ft | 6 kts | 263° |
| 2026-04-20 13:49 | 57.09234 | 9.87319 | 13 ft | 16 kts | 251° |
| 2026-04-20 13:49 | 57.09199 | 9.87164 | 13 ft | 6 kts | 276° |
| 2026-04-20 13:49 | 57.09264 | 9.87034 | 13 ft | 16 kts | 315° |
| 2026-04-20 13:50 | 57.09349 | 9.86880 | 12 ft | 18 kts | 316° |
| 2026-04-20 13:50 | 57.09391 | 9.86719 | 13 ft | 0 kts | 263° |
| 2026-04-20 13:50 | 57.09390 | 9.86696 | 13 ft | 17 kts | 266° |
| 2026-04-20 13:50 | 57.09368 | 9.86322 | 13 ft | 33 kts | 264° |
| 2026-04-20 13:51 | 57.09340 | 9.85874 | 11 ft | 39 kts | 263° |
| 2026-04-20 13:51 | 57.09307 | 9.85352 | 11 ft | 44 kts | 262° |
| 2026-04-20 13:51 | 57.09267 | 9.84785 | 10 ft | 43 kts | 265° |
| 2026-04-20 13:51 | 57.09242 | 9.84417 | 9 ft | 11 kts | 262° |
| 2026-04-20 13:52 | 57.09236 | 9.84303 | 10 ft | 7 kts | 266° |
| 2026-04-20 13:52 | 57.09239 | 9.84274 | 10 ft | 2 kts | 68° |
| 2026-04-20 13:52 | 57.09257 | 9.84446 | 9 ft | 19 kts | 45° |
| 2026-04-20 13:52 | 57.09350 | 9.84365 | 11 ft | 18 kts | 322° |
| 2026-04-20 13:53 | 57.09431 | 9.84347 | 13 ft | 11 kts | 74° |
| 2026-04-20 13:53 | 57.09438 | 9.84414 | 13 ft | 0 kts | 83° |
| 2026-04-20 13:54 | 57.09449 | 9.84577 | 12 ft | 41 kts | 83° |
| 2026-04-20 13:54 | 57.09505 | 9.85450 | 9 ft | 94 kts | 83° |
| 2026-04-20 13:54 | 57.09564 | 9.86287 | 70 ft | 103 kts | 82° |
| 2026-04-20 13:55 | 57.09662 | 9.87610 | 256 ft | 104 kts | 81° |
| 2026-04-20 13:55 | 57.09735 | 9.88930 | 452 ft | 110 kts | 81° |
| 2026-04-20 13:55 | 57.09835 | 9.90551 | 676 ft | 149 kts | 82° |
| 2026-04-20 13:55 | 57.09965 | 9.93257 | 1444 ft | 170 kts | 86° |
| 2026-04-20 13:56 | 57.09821 | 9.95156 | 2790 ft | 148 kts | 110° |
| 2026-04-20 13:56 | 57.08918 | 9.96621 | 2803 ft | 212 kts | 155° |
| 2026-04-20 13:56 | 57.07863 | 9.96833 | 2716 ft | 248 kts | 180° |
| 2026-04-20 13:56 | 57.06116 | 9.96084 | 2614 ft | 252 kts | 193° |
| 2026-04-20 13:57 | 57.04539 | 9.95154 | 2455 ft | 227 kts | 194° |
| 2026-04-20 13:57 | 57.03171 | 9.94338 | 2878 ft | 188 kts | 193° |
| 2026-04-20 13:57 | 57.02034 | 9.93595 | 3235 ft | 159 kts | 193° |
| 2026-04-20 13:57 | 57.00831 | 9.92679 | 3693 ft | 123 kts | 194° |
| 2026-04-20 13:58 | 57.00347 | 9.92268 | 3911 ft | 105 kts | 194° |
| 2026-04-20 13:58 | 56.99685 | 9.91669 | 4097 ft | 116 kts | 194° |
| 2026-04-20 13:58 | 56.98937 | 9.91049 | 4538 ft | 126 kts | 194° |
| 2026-04-20 13:58 | 56.98055 | 9.90356 | 5016 ft | 150 kts | 194° |
| 2026-04-20 13:59 | 56.97012 | 9.89549 | 5460 ft | 175 kts | 194° |
| 2026-04-20 13:59 | 56.95809 | 9.88662 | 5889 ft | 197 kts | 194° |
| 2026-04-20 13:59 | 56.94463 | 9.87704 | 6267 ft | 218 kts | 194° |
| 2026-04-20 13:59 | 56.92975 | 9.86689 | 6548 ft | 237 kts | 193° |
| 2026-04-20 14:00 | 56.91329 | 9.86149 | 6815 ft | 245 kts | 179° |
| 2026-04-20 14:00 | 56.89600 | 9.85972 | 7072 ft | 252 kts | 177° |
| 2026-04-20 14:00 | 56.87829 | 9.85821 | 7322 ft | 257 kts | 177° |
| 2026-04-20 14:00 | 56.86027 | 9.85660 | 7577 ft | 261 kts | 177° |
| 2026-04-20 14:01 | 56.84227 | 9.85498 | 7826 ft | 264 kts | 177° |
| 2026-04-20 14:01 | 56.82387 | 9.85335 | 8085 ft | 267 kts | 177° |
| 2026-04-20 14:01 | 56.80524 | 9.85175 | 8342 ft | 269 kts | 177° |
| 2026-04-20 14:01 | 56.78645 | 9.85007 | 8600 ft | 272 kts | 177° |
| 2026-04-20 14:02 | 56.76751 | 9.84840 | 8861 ft | 274 kts | 177° |
| 2026-04-20 14:02 | 56.74843 | 9.84701 | 9123 ft | 275 kts | 175° |
| 2026-04-20 14:02 | 56.72927 | 9.84674 | 9392 ft | 276 kts | 174° |
| 2026-04-20 14:02 | 56.70999 | 9.84674 | 9679 ft | 278 kts | 174° |
| 2026-04-20 14:03 | 56.69059 | 9.84677 | 9938 ft | 280 kts | 174° |
| 2026-04-20 14:03 | 56.67106 | 9.84676 | 10218 ft | 281 kts | 174° |
| 2026-04-20 14:03 | 56.65170 | 9.84679 | 10465 ft | 283 kts | 174° |
| 2026-04-20 14:03 | 56.63198 | 9.84684 | 10709 ft | 284 kts | 174° |
| 2026-04-20 14:04 | 56.61220 | 9.84693 | 10959 ft | 285 kts | 174° |
| 2026-04-20 14:04 | 56.59240 | 9.84702 | 11208 ft | 285 kts | 174° |
| 2026-04-20 14:04 | 56.57255 | 9.84714 | 11460 ft | 285 kts | 174° |
| 2026-04-20 14:04 | 56.55267 | 9.84732 | 11706 ft | 285 kts | 174° |
| 2026-04-20 14:05 | 56.53284 | 9.84759 | 11961 ft | 285 kts | 174° |
| 2026-04-20 14:05 | 56.51305 | 9.84790 | 12220 ft | 284 kts | 174° |
| 2026-04-20 14:05 | 56.49351 | 9.84824 | 12359 ft | 288 kts | 174° |
| 2026-04-20 14:05 | 56.47318 | 9.84868 | 12359 ft | 297 kts | 174° |
| 2026-04-20 14:06 | 56.45081 | 9.85099 | 13225 ft | 242 kts | 168° |
| 2026-04-20 14:06 | 56.43414 | 9.85390 | 13355 ft | 247 kts | 168° |
| 2026-04-20 14:06 | 56.41674 | 9.85715 | 13502 ft | 255 kts | 167° |
| 2026-04-20 14:06 | 56.39889 | 9.86060 | 13664 ft | 259 kts | 167° |
| 2026-04-20 14:07 | 56.38084 | 9.86417 | 13834 ft | 264 kts | 167° |
| 2026-04-20 14:07 | 56.36278 | 9.86782 | 14023 ft | 266 kts | 167° |
| 2026-04-20 14:07 | 56.34428 | 9.87160 | 14208 ft | 268 kts | 167° |
| 2026-04-20 14:07 | 56.32569 | 9.87551 | 14374 ft | 270 kts | 167° |
| 2026-04-20 14:08 | 56.30699 | 9.87950 | 14541 ft | 271 kts | 167° |
| 2026-04-20 14:08 | 56.28820 | 9.88357 | 14717 ft | 271 kts | 167° |
| 2026-04-20 14:08 | 56.26944 | 9.88768 | 14883 ft | 273 kts | 167° |
| 2026-04-20 14:08 | 56.25054 | 9.89184 | 15047 ft | 274 kts | 167° |
| 2026-04-20 14:09 | 56.23165 | 9.89600 | 15216 ft | 274 kts | 167° |
| 2026-04-20 14:09 | 56.21272 | 9.90016 | 15388 ft | 274 kts | 167° |
| 2026-04-20 14:09 | 56.19399 | 9.90428 | 15559 ft | 275 kts | 167° |
| 2026-04-20 14:09 | 56.17503 | 9.90849 | 15751 ft | 275 kts | 168° |
| 2026-04-20 14:10 | 56.15602 | 9.91274 | 15923 ft | 275 kts | 167° |
| 2026-04-20 14:10 | 56.13703 | 9.91705 | 16094 ft | 275 kts | 167° |
| 2026-04-20 14:10 | 56.11795 | 9.92143 | 16262 ft | 276 kts | 167° |
| 2026-04-20 14:10 | 56.09901 | 9.92580 | 16432 ft | 276 kts | 167° |
| 2026-04-20 14:11 | 56.07997 | 9.93021 | 16607 ft | 276 kts | 167° |
| 2026-04-20 14:11 | 56.06093 | 9.93464 | 16777 ft | 276 kts | 167° |
| 2026-04-20 14:11 | 56.04187 | 9.93907 | 16904 ft | 277 kts | 167° |
| 2026-04-20 14:11 | 56.02255 | 9.94362 | 16921 ft | 283 kts | 167° |
| 2026-04-20 14:12 | 56.00282 | 9.94828 | 16644 ft | 299 kts | 168° |
| 2026-04-20 14:12 | 55.98136 | 9.95010 | 16262 ft | 317 kts | 175° |
| 2026-04-20 14:12 | 55.95964 | 9.94963 | 15890 ft | 297 kts | 176° |
| 2026-04-20 14:12 | 55.93887 | 9.94853 | 15495 ft | 308 kts | 177° |
| 2026-04-20 14:13 | 55.91724 | 9.94735 | 15131 ft | 302 kts | 177° |
| 2026-04-20 14:13 | 55.89742 | 9.94592 | 14760 ft | 269 kts | 177° |
| 2026-04-20 14:13 | 55.87964 | 9.94426 | 14382 ft | 245 kts | 177° |
| 2026-04-20 14:13 | 55.86318 | 9.94244 | 13992 ft | 230 kts | 177° |
| 2026-04-20 14:14 | 55.84757 | 9.94049 | 13564 ft | 220 kts | 177° |
| 2026-04-20 14:14 | 55.83253 | 9.93849 | 13162 ft | 214 kts | 177° |
| 2026-04-20 14:14 | 55.81806 | 9.93643 | 12767 ft | 209 kts | 177° |
| 2026-04-20 14:14 | 55.80405 | 9.93424 | 12633 ft | 195 kts | 177° |
| 2026-04-20 14:15 | 55.79066 | 9.93210 | 12482 ft | 198 kts | 177° |
| 2026-04-20 14:15 | 55.77616 | 9.92992 | 12358 ft | 222 kts | 177° |
| 2026-04-20 14:15 | 55.75983 | 9.92789 | 12250 ft | 248 kts | 177° |
| 2026-04-20 14:15 | 55.74200 | 9.92598 | 12137 ft | 264 kts | 177° |
| 2026-04-20 14:16 | 55.72325 | 9.92419 | 12018 ft | 276 kts | 177° |
| 2026-04-20 14:16 | 55.70404 | 9.92245 | 11981 ft | 282 kts | 177° |
| 2026-04-20 14:16 | 55.68403 | 9.92072 | 11973 ft | 286 kts | 177° |
| 2026-04-20 14:16 | 55.66430 | 9.91904 | 11974 ft | 290 kts | 177° |
| 2026-04-20 14:17 | 55.64406 | 9.91737 | 11974 ft | 293 kts | 177° |
| 2026-04-20 14:17 | 55.62355 | 9.91462 | 11975 ft | 298 kts | 180° |
| 2026-04-20 14:17 | 55.60290 | 9.91125 | 11973 ft | 297 kts | 180° |
| 2026-04-20 14:17 | 55.58235 | 9.90773 | 11964 ft | 297 kts | 180° |
| 2026-04-20 14:18 | 55.56180 | 9.90418 | 11963 ft | 296 kts | 180° |
| 2026-04-20 14:18 | 55.54129 | 9.90064 | 11963 ft | 296 kts | 180° |
| 2026-04-20 14:18 | 55.52076 | 9.89716 | 11963 ft | 297 kts | 180° |
| 2026-04-20 14:18 | 55.50019 | 9.89368 | 11964 ft | 298 kts | 180° |
| 2026-04-20 14:19 | 55.47981 | 9.89022 | 11962 ft | 299 kts | 180° |
| 2026-04-20 14:19 | 55.45916 | 9.88670 | 11963 ft | 297 kts | 180° |
| 2026-04-20 14:19 | 55.43840 | 9.88316 | 11960 ft | 296 kts | 180° |
| 2026-04-20 14:19 | 55.41809 | 9.87971 | 11961 ft | 298 kts | 180° |
| 2026-04-20 14:20 | 55.39743 | 9.87625 | 11959 ft | 298 kts | 180° |
| 2026-04-20 14:20 | 55.37676 | 9.87279 | 11956 ft | 298 kts | 180° |
| 2026-04-20 14:20 | 55.35611 | 9.86943 | 11958 ft | 295 kts | 180° |
| 2026-04-20 14:20 | 55.33544 | 9.86606 | 11957 ft | 297 kts | 180° |
| 2026-04-20 14:21 | 55.31641 | 9.86273 | 11941 ft | 258 kts | 180° |
| 2026-04-20 14:21 | 55.29825 | 9.85940 | 11934 ft | 268 kts | 180° |
| 2026-04-20 14:21 | 55.27948 | 9.85611 | 11932 ft | 274 kts | 180° |
| 2026-04-20 14:21 | 55.26027 | 9.85280 | 11933 ft | 280 kts | 180° |
| 2026-04-20 14:22 | 55.24075 | 9.84948 | 11934 ft | 284 kts | 180° |
| 2026-04-20 14:22 | 55.22124 | 9.84615 | 11934 ft | 288 kts | 180° |
| 2026-04-20 14:22 | 55.20122 | 9.84279 | 11933 ft | 291 kts | 180° |
| 2026-04-20 14:22 | 55.18094 | 9.83940 | 11931 ft | 294 kts | 180° |
| 2026-04-20 14:23 | 55.16041 | 9.83605 | 11924 ft | 298 kts | 180° |
| 2026-04-20 14:23 | 55.13976 | 9.83272 | 11922 ft | 297 kts | 180° |
| 2026-04-20 14:23 | 55.11917 | 9.82940 | 11917 ft | 297 kts | 180° |
| 2026-04-20 14:23 | 55.09859 | 9.82613 | 11914 ft | 297 kts | 180° |
| 2026-04-20 14:24 | 55.07804 | 9.82287 | 11910 ft | 296 kts | 180° |
| 2026-04-20 14:24 | 55.05778 | 9.81966 | 11909 ft | 296 kts | 180° |
| 2026-04-20 14:24 | 55.03729 | 9.81641 | 11907 ft | 296 kts | 180° |
| 2026-04-20 14:24 | 55.01681 | 9.81314 | 11907 ft | 295 kts | 180° |
| 2026-04-20 14:25 | 54.99635 | 9.80983 | 11907 ft | 295 kts | 180° |
| 2026-04-20 14:25 | 54.97584 | 9.80654 | 11907 ft | 296 kts | 180° |
| 2026-04-20 14:25 | 54.95536 | 9.80326 | 11908 ft | 296 kts | 180° |
| 2026-04-20 14:25 | 54.93479 | 9.80001 | 11908 ft | 297 kts | 180° |
| 2026-04-20 14:26 | 54.91416 | 9.79674 | 11908 ft | 298 kts | 180° |
| 2026-04-20 14:26 | 54.89353 | 9.79348 | 11935 ft | 297 kts | 180° |
| 2026-04-20 14:26 | 54.87367 | 9.79597 | 11920 ft | 288 kts | 161° |
| 2026-04-20 14:26 | 54.85455 | 9.80610 | 11931 ft | 286 kts | 156° |
| 2026-04-20 14:27 | 54.83581 | 9.81738 | 11925 ft | 287 kts | 155° |
| 2026-04-20 14:27 | 54.81698 | 9.82908 | 11926 ft | 287 kts | 155° |
| 2026-04-20 14:27 | 54.79815 | 9.84085 | 11929 ft | 288 kts | 155° |
| 2026-04-20 14:27 | 54.77931 | 9.85264 | 11924 ft | 288 kts | 155° |
| 2026-04-20 14:28 | 54.76046 | 9.86445 | 11920 ft | 288 kts | 155° |
| 2026-04-20 14:28 | 54.74163 | 9.87626 | 11919 ft | 288 kts | 155° |
| 2026-04-20 14:28 | 54.72282 | 9.88800 | 11915 ft | 287 kts | 155° |
| 2026-04-20 14:28 | 54.70437 | 9.89948 | 11917 ft | 286 kts | 155° |
| 2026-04-20 14:29 | 54.68562 | 9.91116 | 11916 ft | 287 kts | 155° |
| 2026-04-20 14:29 | 54.66682 | 9.92290 | 11919 ft | 288 kts | 155° |
| 2026-04-20 14:29 | 54.64799 | 9.93465 | 11914 ft | 287 kts | 155° |
| 2026-04-20 14:29 | 54.62927 | 9.94626 | 11913 ft | 287 kts | 155° |
| 2026-04-20 14:30 | 54.61047 | 9.95794 | 11907 ft | 287 kts | 155° |
| 2026-04-20 14:30 | 54.59167 | 9.96961 | 11910 ft | 287 kts | 155° |
| 2026-04-20 14:30 | 54.57287 | 9.98132 | 11909 ft | 287 kts | 155° |
| 2026-04-20 14:30 | 54.55412 | 9.99304 | 11907 ft | 287 kts | 155° |
| 2026-04-20 14:31 | 54.53535 | 10.00477 | 11908 ft | 287 kts | 155° |
| 2026-04-20 14:31 | 54.51664 | 10.01644 | 11905 ft | 286 kts | 155° |
| 2026-04-20 14:31 | 54.49791 | 10.02810 | 11903 ft | 286 kts | 155° |
| 2026-04-20 14:31 | 54.47923 | 10.03974 | 11906 ft | 286 kts | 155° |
| 2026-04-20 14:32 | 54.46072 | 10.05124 | 11906 ft | 287 kts | 155° |
| 2026-04-20 14:32 | 54.44192 | 10.06289 | 11906 ft | 288 kts | 155° |
| 2026-04-20 14:32 | 54.42305 | 10.07459 | 11905 ft | 289 kts | 155° |
| 2026-04-20 14:32 | 54.40424 | 10.08628 | 11907 ft | 287 kts | 155° |
| 2026-04-20 14:33 | 54.38550 | 10.09790 | 11906 ft | 286 kts | 155° |
| 2026-04-20 14:33 | 54.36674 | 10.10950 | 11907 ft | 287 kts | 155° |
| 2026-04-20 14:33 | 54.34788 | 10.12117 | 11906 ft | 288 kts | 155° |
| 2026-04-20 14:33 | 54.32908 | 10.13265 | 11908 ft | 286 kts | 155° |
| 2026-04-20 14:34 | 54.31663 | 10.14017 | 11909 ft | 286 kts | 155° |
| 2026-04-20 14:34 | 54.29789 | 10.15155 | 11908 ft | 286 kts | 155° |
| 2026-04-20 14:34 | 54.27304 | 10.16670 | 11906 ft | 287 kts | 155° |
| 2026-04-20 14:34 | 54.25422 | 10.17838 | 11905 ft | 288 kts | 155° |
| 2026-04-20 14:35 | 54.23540 | 10.18994 | 11905 ft | 287 kts | 155° |
| 2026-04-20 14:35 | 54.21660 | 10.20133 | 11898 ft | 286 kts | 155° |
| 2026-04-20 14:35 | 54.19780 | 10.21267 | 11898 ft | 286 kts | 155° |
| 2026-04-20 14:35 | 54.17911 | 10.22391 | 11404 ft | 280 kts | 155° |
| 2026-04-20 14:36 | 54.16701 | 10.23123 | 11065 ft | 278 kts | 155° |
| 2026-04-20 14:36 | 54.14891 | 10.24228 | 10565 ft | 274 kts | 155° |
| 2026-04-20 14:36 | 54.13106 | 10.25315 | 10053 ft | 271 kts | 155° |
| 2026-04-20 14:36 | 54.11337 | 10.26383 | 9511 ft | 268 kts | 155° |
| 2026-04-20 14:37 | 54.09585 | 10.27426 | 8965 ft | 266 kts | 155° |
| 2026-04-20 14:37 | 54.07758 | 10.27963 | 8414 ft | 277 kts | 179° |
| 2026-04-20 14:37 | 54.05945 | 10.26765 | 7879 ft | 289 kts | 212° |
| 2026-04-20 14:37 | 54.04707 | 10.24139 | 7355 ft | 287 kts | 239° |
| 2026-04-20 14:38 | 54.03833 | 10.21122 | 6863 ft | 287 kts | 244° |
| 2026-04-20 14:38 | 54.02888 | 10.18154 | 6342 ft | 283 kts | 232° |
| 2026-04-20 14:38 | 54.01609 | 10.15614 | 5812 ft | 280 kts | 225° |
| 2026-04-20 14:38 | 54.00262 | 10.13193 | 5296 ft | 281 kts | 224° |
| 2026-04-20 14:39 | 53.98909 | 10.10797 | 4770 ft | 281 kts | 224° |
| 2026-04-20 14:39 | 53.97560 | 10.08400 | 4242 ft | 278 kts | 224° |
| 2026-04-20 14:39 | 53.96224 | 10.06029 | 3721 ft | 279 kts | 224° |
| 2026-04-20 14:39 | 53.94893 | 10.03663 | 3653 ft | 279 kts | 224° |
| 2026-04-20 14:40 | 53.93572 | 10.01309 | 3654 ft | 281 kts | 224° |
| 2026-04-20 14:40 | 53.92230 | 9.98907 | 3642 ft | 280 kts | 224° |
| 2026-04-20 14:40 | 53.90886 | 9.96500 | 3450 ft | 279 kts | 224° |
| 2026-04-20 14:40 | 53.89584 | 9.94173 | 3160 ft | 263 kts | 224° |
| 2026-04-20 14:41 | 53.88360 | 9.91978 | 2877 ft | 250 kts | 225° |
| 2026-04-20 14:41 | 53.87425 | 9.89622 | 2822 ft | 234 kts | 242° |
| 2026-04-20 14:41 | 53.86731 | 9.87213 | 2825 ft | 223 kts | 244° |
| 2026-04-20 14:41 | 53.86026 | 9.84711 | 2830 ft | 257 kts | 244° |
| 2026-04-20 14:42 | 53.85219 | 9.81845 | 2845 ft | 277 kts | 244° |
| 2026-04-20 14:42 | 53.84374 | 9.78846 | 2845 ft | 285 kts | 244° |
| 2026-04-20 14:42 | 53.83538 | 9.75916 | 2828 ft | 276 kts | 244° |
| 2026-04-20 14:42 | 53.82698 | 9.72999 | 2836 ft | 277 kts | 244° |
| 2026-04-20 14:43 | 53.81845 | 9.70066 | 2806 ft | 279 kts | 244° |
| 2026-04-20 14:43 | 53.81002 | 9.67112 | 2664 ft | 281 kts | 244° |
| 2026-04-20 14:43 | 53.80162 | 9.64179 | 2547 ft | 277 kts | 244° |
| 2026-04-20 14:43 | 53.79331 | 9.61316 | 2727 ft | 259 kts | 243° |
| 2026-04-20 14:44 | 53.78580 | 9.58724 | 3032 ft | 232 kts | 244° |
| 2026-04-20 14:44 | 53.77916 | 9.56388 | 3333 ft | 207 kts | 244° |
| 2026-04-20 14:44 | 53.77325 | 9.54277 | 3625 ft | 191 kts | 244° |
| 2026-04-20 14:44 | 53.76523 | 9.52487 | 3831 ft | 203 kts | 217° |
| 2026-04-20 14:45 | 53.75324 | 9.50968 | 3839 ft | 226 kts | 213° |
| 2026-04-20 14:45 | 53.73994 | 9.49303 | 3836 ft | 249 kts | 214° |
| 2026-04-20 14:45 | 53.72582 | 9.47524 | 3831 ft | 267 kts | 213° |
| 2026-04-20 14:45 | 53.71084 | 9.45640 | 3831 ft | 273 kts | 213° |
| 2026-04-20 14:46 | 53.69552 | 9.43724 | 3831 ft | 269 kts | 211° |
| 2026-04-20 14:46 | 53.67808 | 9.42716 | 3815 ft | 262 kts | 178° |
| 2026-04-20 14:46 | 53.65995 | 9.42962 | 3819 ft | 262 kts | 168° |
| 2026-04-20 14:46 | 53.64182 | 9.43432 | 3819 ft | 264 kts | 167° |
| 2026-04-20 14:47 | 53.62365 | 9.43927 | 3824 ft | 264 kts | 167° |
| 2026-04-20 14:47 | 53.60549 | 9.44412 | 3821 ft | 265 kts | 167° |
| 2026-04-20 14:47 | 53.58719 | 9.44894 | 3821 ft | 267 kts | 166° |
| 2026-04-20 14:48 | 53.54931 | 9.46151 | 4673 ft | 267 kts | 165° |
| 2026-04-20 14:48 | 53.53099 | 9.46618 | 4674 ft | 267 kts | 167° |
| 2026-04-20 14:48 | 53.51266 | 9.47086 | 4327 ft | 264 kts | 166° |
| 2026-04-20 14:48 | 53.49543 | 9.47538 | 3986 ft | 231 kts | 166° |
| 2026-04-20 14:49 | 53.48035 | 9.47560 | 3630 ft | 217 kts | 191° |
| 2026-04-20 14:49 | 53.46730 | 9.46035 | 3269 ft | 236 kts | 226° |
| 2026-04-20 14:49 | 53.45700 | 9.43930 | 2998 ft | 231 kts | 230° |
| 2026-04-20 14:49 | 53.44710 | 9.41922 | 2984 ft | 215 kts | 225° |
| 2026-04-20 14:50 | 53.43466 | 9.40917 | 2970 ft | 195 kts | 177° |
| 2026-04-20 14:50 | 53.42285 | 9.41601 | 2977 ft | 173 kts | 139° |
| 2026-04-20 14:50 | 53.41294 | 9.42732 | 2977 ft | 176 kts | 139° |
| 2026-04-20 14:50 | 53.40253 | 9.43891 | 2984 ft | 183 kts | 140° |
| 2026-04-20 14:51 | 53.39183 | 9.45095 | 2987 ft | 186 kts | 139° |
| 2026-04-20 14:51 | 53.38253 | 9.46516 | 2977 ft | 178 kts | 112° |
| 2026-04-20 14:51 | 53.38241 | 9.48456 | 2976 ft | 170 kts | 63° |
| 2026-04-20 14:51 | 53.38977 | 9.49997 | 2992 ft | 170 kts | 49° |
| 2026-04-20 14:52 | 53.39784 | 9.51480 | 2989 ft | 174 kts | 49° |
| 2026-04-20 14:52 | 53.40676 | 9.53143 | 2995 ft | 215 kts | 50° |
| 2026-04-20 14:52 | 53.41661 | 9.55012 | 2993 ft | 212 kts | 50° |
| 2026-04-20 14:52 | 53.42635 | 9.56853 | 2994 ft | 210 kts | 49° |
| 2026-04-20 14:53 | 53.43591 | 9.58669 | 2991 ft | 211 kts | 50° |
| 2026-04-20 14:53 | 53.44565 | 9.60508 | 3005 ft | 211 kts | 49° |
| 2026-04-20 14:53 | 53.45505 | 9.62289 | 2998 ft | 198 kts | 50° |
| 2026-04-20 14:53 | 53.46402 | 9.64000 | 2996 ft | 192 kts | 50° |
| 2026-04-20 14:54 | 53.47277 | 9.65661 | 2990 ft | 188 kts | 49° |
| 2026-04-20 14:54 | 53.48115 | 9.67315 | 2993 ft | 184 kts | 51° |
| 2026-04-20 14:54 | 53.48928 | 9.68963 | 2992 ft | 183 kts | 51° |
| 2026-04-20 14:54 | 53.49738 | 9.70595 | 2992 ft | 181 kts | 51° |
| 2026-04-20 14:55 | 53.50507 | 9.72187 | 2990 ft | 164 kts | 54° |
| 2026-04-20 14:55 | 53.51152 | 9.73678 | 2990 ft | 155 kts | 55° |
| 2026-04-20 14:55 | 53.51756 | 9.75113 | 2990 ft | 147 kts | 56° |
| 2026-04-20 14:55 | 53.52359 | 9.76485 | 2900 ft | 145 kts | 53° |
| 2026-04-20 14:56 | 53.53029 | 9.77956 | 2973 ft | 166 kts | 53° |
| 2026-04-20 14:56 | 53.53691 | 9.79323 | 3377 ft | 138 kts | 52° |
| 2026-04-20 14:56 | 53.54269 | 9.80443 | 3688 ft | 118 kts | 52° |
| 2026-04-20 14:56 | 53.54816 | 9.81620 | 3628 ft | 142 kts | 55° |
| 2026-04-20 14:57 | 53.55433 | 9.83032 | 3559 ft | 149 kts | 55° |
| 2026-04-20 14:57 | 53.56023 | 9.84411 | 3443 ft | 155 kts | 57° |
| 2026-04-20 14:57 | 53.56702 | 9.85977 | 3216 ft | 154 kts | 55° |
| 2026-04-20 14:57 | 53.57292 | 9.87254 | 3076 ft | 130 kts | 52° |
| 2026-04-20 14:58 | 53.57876 | 9.88440 | 2797 ft | 133 kts | 51° |
| 2026-04-20 14:58 | 53.58518 | 9.89831 | 2248 ft | 165 kts | 54° |
| 2026-04-20 14:58 | 53.59187 | 9.91110 | 1834 ft | 135 kts | 49° |
| 2026-04-20 14:58 | 53.59806 | 9.92339 | 1386 ft | 140 kts | 49° |
| 2026-04-20 14:59 | 53.60439 | 9.93595 | 983 ft | 129 kts | 51° |
| 2026-04-20 14:59 | 53.60967 | 9.94682 | 678 ft | 106 kts | 50° |
| 2026-04-20 14:59 | 53.61401 | 9.95506 | 413 ft | 91 kts | 54° |
| 2026-04-20 14:59 | 53.61795 | 9.96315 | 250 ft | 82 kts | 51° |
| 2026-04-20 15:00 | 53.62145 | 9.97020 | 99 ft | 79 kts | 51° |
| 2026-04-20 15:00 | 53.62483 | 9.97702 | 50 ft | 69 kts | 50° |
| 2026-04-20 15:00 | 53.62730 | 9.98198 | 39 ft | 26 kts | 50° |
| 2026-04-20 15:00 | 53.62836 | 9.98413 | 39 ft | 33 kts | 51° |
| 2026-04-20 15:01 | 53.62961 | 9.98667 | 37 ft | 15 kts | 50° |
| 2026-04-20 15:01 | 53.63079 | 9.98953 | 39 ft | 31 kts | 71° |
| 2026-04-20 15:01 | 53.63089 | 9.99196 | 38 ft | 0 kts | 95° |
| 2026-04-20 15:02 | 53.63084 | 9.99213 | 38 ft | 13 kts | 131° |
| 2026-04-20 15:02 | 53.62938 | 9.99051 | 37 ft | 32 kts | 232° |
| 2026-04-20 15:02 | 53.62805 | 9.98785 | 37 ft | 27 kts | 231° |
| 2026-04-20 15:03 | 53.62731 | 9.98641 | 37 ft | 13 kts | 192° |
| 2026-04-20 15:03 | 53.62660 | 9.98686 | 37 ft | 10 kts | 185° |
| 2026-04-20 15:03 | 53.62633 | 9.98645 | 37 ft | 0 kts | 245° |